CYDF

Deer Lake Airport

Deer Lake, Canada
METAR CYDF 181724Z 05014KT 10SM FEW008 SCT014 OVC025 05/03 A2998 RMK SF2SC2SC4 SLP154
Observed Flight Rules
Sep-18 @ 17:24 UTC (14 minutes ago) Marginal Visual Flight Rules
Wind Visibility Clouds
50° at 14 knots 10 miles
  • Few at 800' AGL
  • Scattered at 1,400' AGL
  • Overcast at 2,500' AGL
Temperatures Readings
Current 5°C / 41°F
Dewpoint 3°C / 37°F
Humidity 87%
Altimeter 29.98" Hg
Pressure 1015.4 hPa
Elevation 22
METAR CYDF 181724Z 05014KT 10SM FEW008 SCT014 OVC025 05/03 A2998 RMK SF2SC2SC4 SLP154
Observed Flight Rules
Sep-18 @ 17:24 UTC
(14 minutes ago)
MVFR
Wind Visibility
50° at 14 knots 10 miles
Clouds
  • Few at 800' AGL
  • Scattered at 1,400' AGL
  • Overcast at 2,500' AGL
Temperature Dewpoint
5°C / 41°F 3°C / 37°F
Humidity Altimeter Pressure
87% 29.98" Hg 1015.4 hPa